sensor_id;sensor_type;location;lat;lon;timestamp;pressure;altitude;pressure_sealevel;temperature;humidity
2681;BME280;1350;42.134;24.708;2023-05-07T00:02:14;99636.00;;;14.97;100.00
2681;BME280;1350;42.134;24.708;2023-05-07T00:04:40;99639.94;;;14.91;100.00
2681;BME280;1350;42.134;24.708;2023-05-07T00:07:08;99637.50;;;15.01;100.00
2681;BME280;1350;42.134;24.708;2023-05-07T00:09:36;99633.31;;;14.84;100.00
2681;BME280;1350;42.134;24.708;2023-05-07T00:12:03;99634.50;;;14.80;100.00
2681;BME280;1350;42.134;24.708;2023-05-07T00:14:29;99626.91;;;14.74;100.00
2681;BME280;1350;42.134;24.708;2023-05-07T00:16:57;99631.03;;;14.53;100.00
2681;BME280;1350;42.134;24.708;2023-05-07T00:19:23;99625.19;;;14.73;100.00
2681;BME280;1350;42.134;24.708;2023-05-07T00:21:50;99625.59;;;14.55;100.00
2681;BME280;1350;42.134;24.708;2023-05-07T00:24:20;99619.84;;;14.48;100.00
2681;BME280;1350;42.134;24.708;2023-05-07T00:26:46;99625.25;;;14.47;100.00
2681;BME280;1350;42.134;24.708;2023-05-07T00:29:13;99624.50;;;14.45;100.00
2681;BME280;1350;42.134;24.708;2023-05-07T00:31:40;99626.63;;;14.40;100.00
2681;BME280;1350;42.134;24.708;2023-05-07T00:34:07;99628.31;;;14.41;100.00
2681;BME280;1350;42.134;24.708;2023-05-07T00:36:33;99628.22;;;14.42;100.00
2681;BME280;1350;42.134;24.708;2023-05-07T00:39:00;99624.63;;;14.43;100.00
2681;BME280;1350;42.134;24.708;2023-05-07T00:41:30;99633.59;;;14.55;100.00
2681;BME280;1350;42.134;24.708;2023-05-07T00:43:57;99629.31;;;14.52;100.00
2681;BME280;1350;42.134;24.708;2023-05-07T00:46:24;99632.97;;;14.51;100.00
2681;BME280;1350;42.134;24.708;2023-05-07T00:48:51;99637.34;;;14.52;100.00
2681;BME280;1350;42.134;24.708;2023-05-07T00:51:18;99636.47;;;14.52;100.00
2681;BME280;1350;42.134;24.708;2023-05-07T00:53:45;99641.19;;;14.48;100.00
2681;BME280;1350;42.134;24.708;2023-05-07T00:56:12;99641.81;;;14.52;100.00
2681;BME280;1350;42.134;24.708;2023-05-07T00:58:41;99647.34;;;14.49;100.00
2681;BME280;1350;42.134;24.708;2023-05-07T01:01:08;99653.75;;;14.46;100.00
2681;BME280;1350;42.134;24.708;2023-05-07T01:03:35;99648.22;;;14.49;100.00
2681;BME280;1350;42.134;24.708;2023-05-07T01:06:02;99647.44;;;14.47;100.00
2681;BME280;1350;42.134;24.708;2023-05-07T01:08:30;99650.00;;;14.49;100.00
2681;BME280;1350;42.134;24.708;2023-05-07T01:10:58;99648.00;;;14.52;100.00
2681;BME280;1350;42.134;24.708;2023-05-07T01:13:26;99645.25;;;14.66;100.00
2681;BME280;1350;42.134;24.708;2023-05-07T01:15:55;99648.91;;;14.78;100.00
2681;BME280;1350;42.134;24.708;2023-05-07T01:18:22;99650.75;;;15.02;100.00
2681;BME280;1350;42.134;24.708;2023-05-07T01:20:48;99651.72;;;15.14;100.00
2681;BME280;1350;42.134;24.708;2023-05-07T01:23:17;99656.63;;;15.20;100.00
2681;BME280;1350;42.134;24.708;2023-05-07T01:25:51;99649.56;;;15.32;100.00
2681;BME280;1350;42.134;24.708;2023-05-07T01:28:18;99647.13;;;15.41;100.00
2681;BME280;1350;42.134;24.708;2023-05-07T01:30:46;99647.03;;;15.43;100.00
2681;BME280;1350;42.134;24.708;2023-05-07T01:33:15;99643.19;;;15.47;100.00
2681;BME280;1350;42.134;24.708;2023-05-07T01:35:47;99655.03;;;15.55;100.00
2681;BME280;1350;42.134;24.708;2023-05-07T01:38:16;99649.56;;;15.57;100.00
2681;BME280;1350;42.134;24.708;2023-05-07T01:40:45;99657.03;;;15.64;100.00
2681;BME280;1350;42.134;24.708;2023-05-07T01:43:11;99655.44;;;15.62;100.00
2681;BME280;1350;42.134;24.708;2023-05-07T01:45:41;99655.47;;;15.49;100.00
2681;BME280;1350;42.134;24.708;2023-05-07T01:48:11;99651.31;;;15.45;100.00
2681;BME280;1350;42.134;24.708;2023-05-07T01:50:38;99651.41;;;15.44;100.00
2681;BME280;1350;42.134;24.708;2023-05-07T01:53:06;99647.78;;;15.45;100.00
2681;BME280;1350;42.134;24.708;2023-05-07T01:55:34;99644.84;;;15.35;100.00
2681;BME280;1350;42.134;24.708;2023-05-07T01:58:02;99643.59;;;15.28;100.00
2681;BME280;1350;42.134;24.708;2023-05-07T02:00:28;99647.84;;;15.31;100.00
2681;BME280;1350;42.134;24.708;2023-05-07T02:02:55;99648.84;;;15.30;100.00
2681;BME280;1350;42.134;24.708;2023-05-07T02:05:22;99651.19;;;15.34;100.00
2681;BME280;1350;42.134;24.708;2023-05-07T02:07:49;99641.31;;;15.35;100.00
2681;BME280;1350;42.134;24.708;2023-05-07T02:10:15;99643.91;;;15.49;100.00
2681;BME280;1350;42.134;24.708;2023-05-07T02:12:43;99643.69;;;15.52;100.00
2681;BME280;1350;42.134;24.708;2023-05-07T02:15:10;99645.84;;;15.47;100.00
2681;BME280;1350;42.134;24.708;2023-05-07T02:17:39;99643.34;;;15.56;100.00
2681;BME280;1350;42.134;24.708;2023-05-07T02:20:07;99636.09;;;15.33;100.00
2681;BME280;1350;42.134;24.708;2023-05-07T02:22:38;99631.97;;;15.42;100.00
2681;BME280;1350;42.134;24.708;2023-05-07T02:25:05;99635.25;;;15.33;100.00
2681;BME280;1350;42.134;24.708;2023-05-07T02:27:32;99635.47;;;15.30;100.00
2681;BME280;1350;42.134;24.708;2023-05-07T02:30:00;99641.13;;;15.25;100.00
2681;BME280;1350;42.134;24.708;2023-05-07T02:32:27;99638.91;;;15.06;100.00
2681;BME280;1350;42.134;24.708;2023-05-07T02:34:53;99640.94;;;15.15;100.00
2681;BME280;1350;42.134;24.708;2023-05-07T02:37:20;99632.91;;;15.28;100.00
2681;BME280;1350;42.134;24.708;2023-05-07T02:39:47;99628.22;;;15.06;100.00
2681;BME280;1350;42.134;24.708;2023-05-07T02:42:13;99634.94;;;14.99;100.00
2681;BME280;1350;42.134;24.708;2023-05-07T02:44:40;99634.91;;;14.87;100.00
2681;BME280;1350;42.134;24.708;2023-05-07T02:47:08;99634.31;;;14.96;100.00
2681;BME280;1350;42.134;24.708;2023-05-07T02:49:35;99630.78;;;15.08;100.00
2681;BME280;1350;42.134;24.708;2023-05-07T02:52:02;99624.91;;;15.03;100.00
2681;BME280;1350;42.134;24.708;2023-05-07T02:54:29;99618.69;;;14.90;100.00
2681;BME280;1350;42.134;24.708;2023-05-07T02:56:56;99617.53;;;14.81;100.00
2681;BME280;1350;42.134;24.708;2023-05-07T02:59:23;99612.59;;;14.75;100.00
2681;BME280;1350;42.134;24.708;2023-05-07T03:01:51;99613.97;;;14.68;100.00
2681;BME280;1350;42.134;24.708;2023-05-07T03:04:19;99606.69;;;14.58;100.00
2681;BME280;1350;42.134;24.708;2023-05-07T03:06:46;99614.28;;;14.51;100.00
2681;BME280;1350;42.134;24.708;2023-05-07T03:09:12;99612.56;;;14.50;100.00
2681;BME280;1350;42.134;24.708;2023-05-07T03:11:39;99608.72;;;14.42;100.00
2681;BME280;1350;42.134;24.708;2023-05-07T03:14:06;99612.22;;;14.30;100.00
2681;BME280;1350;42.134;24.708;2023-05-07T03:16:33;99609.66;;;14.28;100.00
2681;BME280;1350;42.134;24.708;2023-05-07T03:18:59;99605.72;;;14.20;100.00
2681;BME280;1350;42.134;24.708;2023-05-07T03:21:28;99609.25;;;14.20;100.00
2681;BME280;1350;42.134;24.708;2023-05-07T03:23:55;99604.53;;;14.25;100.00
2681;BME280;1350;42.134;24.708;2023-05-07T03:26:21;99604.59;;;14.24;100.00
2681;BME280;1350;42.134;24.708;2023-05-07T03:28:48;99607.25;;;14.24;100.00
2681;BME280;1350;42.134;24.708;2023-05-07T03:31:15;99614.13;;;14.28;100.00
2681;BME280;1350;42.134;24.708;2023-05-07T03:33:50;99615.63;;;14.18;100.00
2681;BME280;1350;42.134;24.708;2023-05-07T03:36:17;99615.25;;;14.24;100.00
2681;BME280;1350;42.134;24.708;2023-05-07T03:38:45;99614.00;;;14.29;100.00
2681;BME280;1350;42.134;24.708;2023-05-07T03:41:12;99610.16;;;14.33;100.00
2681;BME280;1350;42.134;24.708;2023-05-07T03:43:38;99619.38;;;14.42;100.00
2681;BME280;1350;42.134;24.708;2023-05-07T03:46:05;99616.84;;;14.53;100.00
2681;BME280;1350;42.134;24.708;2023-05-07T03:48:32;99621.59;;;14.74;100.00
2681;BME280;1350;42.134;24.708;2023-05-07T03:50:59;99621.69;;;14.85;100.00
2681;BME280;1350;42.134;24.708;2023-05-07T03:53:26;99630.34;;;15.14;100.00
2681;BME280;1350;42.134;24.708;2023-05-07T03:55:54;99629.59;;;15.24;100.00
2681;BME280;1350;42.134;24.708;2023-05-07T03:58:20;99633.00;;;15.52;100.00
2681;BME280;1350;42.134;24.708;2023-05-07T04:00:47;99641.66;;;15.55;100.00
2681;BME280;1350;42.134;24.708;2023-05-07T04:03:14;99644.59;;;15.88;100.00
2681;BME280;1350;42.134;24.708;2023-05-07T04:05:41;99645.69;;;16.09;100.00
2681;BME280;1350;42.134;24.708;2023-05-07T04:08:07;99643.75;;;16.35;100.00
2681;BME280;1350;42.134;24.708;2023-05-07T04:10:34;99649.88;;;16.60;100.00
2681;BME280;1350;42.134;24.708;2023-05-07T04:13:02;99655.03;;;16.85;100.00
2681;BME280;1350;42.134;24.708;2023-05-07T04:15:29;99654.47;;;17.04;100.00
2681;BME280;1350;42.134;24.708;2023-05-07T04:17:55;99654.13;;;17.20;100.00
2681;BME280;1350;42.134;24.708;2023-05-07T04:20:23;99657.22;;;17.37;100.00
2681;BME280;1350;42.134;24.708;2023-05-07T04:22:49;99660.28;;;17.55;100.00
2681;BME280;1350;42.134;24.708;2023-05-07T04:25:16;99654.19;;;17.75;100.00
2681;BME280;1350;42.134;24.708;2023-05-07T04:27:43;99654.41;;;18.05;100.00
2681;BME280;1350;42.134;24.708;2023-05-07T04:30:12;99655.66;;;18.32;100.00
2681;BME280;1350;42.134;24.708;2023-05-07T04:32:39;99664.25;;;18.58;100.00
2681;BME280;1350;42.134;24.708;2023-05-07T04:35:07;99655.53;;;18.45;100.00
2681;BME280;1350;42.134;24.708;2023-05-07T04:37:33;99660.97;;;18.55;100.00
2681;BME280;1350;42.134;24.708;2023-05-07T04:40:00;99654.56;;;18.67;100.00
2681;BME280;1350;42.134;24.708;2023-05-07T04:42:28;99666.94;;;19.10;100.00
2681;BME280;1350;42.134;24.708;2023-05-07T04:44:55;99663.88;;;19.35;100.00
2681;BME280;1350;42.134;24.708;2023-05-07T04:47:23;99660.91;;;19.38;100.00
2681;BME280;1350;42.134;24.708;2023-05-07T04:49:50;99659.25;;;19.47;99.18
2681;BME280;1350;42.134;24.708;2023-05-07T04:52:16;99669.84;;;19.69;98.21
2681;BME280;1350;42.134;24.708;2023-05-07T04:54:43;99661.84;;;19.88;96.94
2681;BME280;1350;42.134;24.708;2023-05-07T04:57:10;99670.88;;;20.17;95.06
2681;BME280;1350;42.134;24.708;2023-05-07T04:59:36;99661.41;;;20.32;92.50
2681;BME280;1350;42.134;24.708;2023-05-07T05:02:03;99670.41;;;20.12;92.89
2681;BME280;1350;42.134;24.708;2023-05-07T05:04:32;99672.06;;;20.43;92.36
2681;BME280;1350;42.134;24.708;2023-05-07T05:06:58;99674.06;;;20.79;89.27
2681;BME280;1350;42.134;24.708;2023-05-07T05:09:25;99673.91;;;20.71;88.20
2681;BME280;1350;42.134;24.708;2023-05-07T05:11:52;99678.31;;;20.91;87.56
2681;BME280;1350;42.134;24.708;2023-05-07T05:14:18;99679.19;;;21.11;86.62
2681;BME280;1350;42.134;24.708;2023-05-07T05:16:45;99679.06;;;21.03;85.99
2681;BME280;1350;42.134;24.708;2023-05-07T05:19:12;99682.69;;;21.30;84.92
2681;BME280;1350;42.134;24.708;2023-05-07T05:21:40;99687.84;;;21.70;81.80
2681;BME280;1350;42.134;24.708;2023-05-07T05:24:07;99679.16;;;21.66;80.90
2681;BME280;1350;42.134;24.708;2023-05-07T05:26:34;99681.25;;;21.92;79.65
2681;BME280;1350;42.134;24.708;2023-05-07T05:29:01;99691.91;;;22.20;78.46
2681;BME280;1350;42.134;24.708;2023-05-07T05:31:27;99691.56;;;22.50;76.29
2681;BME280;1350;42.134;24.708;2023-05-07T05:33:54;99684.97;;;22.62;73.96
2681;BME280;1350;42.134;24.708;2023-05-07T05:36:21;99684.88;;;22.54;73.97
2681;BME280;1350;42.134;24.708;2023-05-07T05:38:49;99688.94;;;22.68;72.67
2681;BME280;1350;42.134;24.708;2023-05-07T05:41:15;99692.00;;;22.90;70.14
2681;BME280;1350;42.134;24.708;2023-05-07T05:43:42;99695.59;;;22.91;68.90
2681;BME280;1350;42.134;24.708;2023-05-07T05:46:09;99702.91;;;23.34;67.57
2681;BME280;1350;42.134;24.708;2023-05-07T05:48:37;99695.38;;;23.71;65.55
2681;BME280;1350;42.134;24.708;2023-05-07T05:51:03;99691.91;;;23.86;63.24
2681;BME280;1350;42.134;24.708;2023-05-07T05:53:30;99704.69;;;24.35;62.40
2681;BME280;1350;42.134;24.708;2023-05-07T05:55:58;99705.09;;;24.64;61.02
2681;BME280;1350;42.134;24.708;2023-05-07T05:58:25;99710.25;;;24.92;59.37
2681;BME280;1350;42.134;24.708;2023-05-07T06:00:52;99702.59;;;24.21;58.16
2681;BME280;1350;42.134;24.708;2023-05-07T06:03:19;99702.66;;;23.27;59.76
2681;BME280;1350;42.134;24.708;2023-05-07T06:05:46;99698.69;;;23.90;60.17
2681;BME280;1350;42.134;24.708;2023-05-07T06:08:13;99703.97;;;23.66;59.65
2681;BME280;1350;42.134;24.708;2023-05-07T06:10:40;99703.03;;;24.09;58.66
2681;BME280;1350;42.134;24.708;2023-05-07T06:13:08;99705.53;;;24.44;58.02
2681;BME280;1350;42.134;24.708;2023-05-07T06:15:34;99703.38;;;24.63;57.81
2681;BME280;1350;42.134;24.708;2023-05-07T06:18:01;99706.00;;;24.97;55.13
2681;BME280;1350;42.134;24.708;2023-05-07T06:20:28;99705.00;;;24.90;56.67
2681;BME280;1350;42.134;24.708;2023-05-07T06:22:55;99700.44;;;24.91;56.47
2681;BME280;1350;42.134;24.708;2023-05-07T06:25:21;99704.84;;;25.16;57.04
2681;BME280;1350;42.134;24.708;2023-05-07T06:27:48;99706.75;;;25.47;55.24
2681;BME280;1350;42.134;24.708;2023-05-07T06:30:16;99709.75;;;25.20;55.03
2681;BME280;1350;42.134;24.708;2023-05-07T06:32:43;99701.97;;;24.43;56.29
2681;BME280;1350;42.134;24.708;2023-05-07T06:35:09;99695.88;;;25.23;55.49
2681;BME280;1350;42.134;24.708;2023-05-07T06:37:36;99699.00;;;25.91;53.64
2681;BME280;1350;42.134;24.708;2023-05-07T06:40:06;99703.00;;;26.19;52.39
2681;BME280;1350;42.134;24.708;2023-05-07T06:42:33;99699.13;;;26.52;52.13
2681;BME280;1350;42.134;24.708;2023-05-07T06:45:00;99698.78;;;26.86;52.14
2681;BME280;1350;42.134;24.708;2023-05-07T06:47:28;99700.53;;;27.01;51.97
2681;BME280;1350;42.134;24.708;2023-05-07T06:49:55;99698.94;;;27.29;51.28
2681;BME280;1350;42.134;24.708;2023-05-07T06:52:21;99702.97;;;27.56;50.19
2681;BME280;1350;42.134;24.708;2023-05-07T06:54:48;99705.44;;;27.28;50.24
2681;BME280;1350;42.134;24.708;2023-05-07T06:57:15;99699.75;;;27.38;50.35
2681;BME280;1350;42.134;24.708;2023-05-07T06:59:41;99698.63;;;27.47;49.65
2681;BME280;1350;42.134;24.708;2023-05-07T07:02:08;99699.44;;;27.33;49.72
2681;BME280;1350;42.134;24.708;2023-05-07T07:04:36;99698.06;;;27.88;49.32
2681;BME280;1350;42.134;24.708;2023-05-07T07:07:03;99699.25;;;27.71;48.38
2681;BME280;1350;42.134;24.708;2023-05-07T07:09:29;99693.53;;;27.81;48.22
2681;BME280;1350;42.134;24.708;2023-05-07T07:11:56;99695.53;;;28.16;50.26
2681;BME280;1350;42.134;24.708;2023-05-07T07:14:23;99688.16;;;27.58;49.33
2681;BME280;1350;42.134;24.708;2023-05-07T07:16:50;99699.81;;;27.30;50.19
2681;BME280;1350;42.134;24.708;2023-05-07T07:19:16;99696.88;;;27.68;50.79
2681;BME280;1350;42.134;24.708;2023-05-07T07:21:44;99700.47;;;27.83;53.33
2681;BME280;1350;42.134;24.708;2023-05-07T07:24:12;99700.66;;;27.30;49.63
2681;BME280;1350;42.134;24.708;2023-05-07T07:26:44;99695.91;;;27.47;49.88
2681;BME280;1350;42.134;24.708;2023-05-07T07:29:11;99701.22;;;27.26;51.54
2681;BME280;1350;42.134;24.708;2023-05-07T07:31:38;99710.84;;;26.83;50.79
2681;BME280;1350;42.134;24.708;2023-05-07T07:34:05;99710.28;;;26.57;50.47
2681;BME280;1350;42.134;24.708;2023-05-07T07:36:32;99706.75;;;26.26;54.52
2681;BME280;1350;42.134;24.708;2023-05-07T07:39:00;99703.00;;;26.66;53.75
2681;BME280;1350;42.134;24.708;2023-05-07T07:41:27;99714.47;;;26.76;53.75
2681;BME280;1350;42.134;24.708;2023-05-07T07:43:53;99712.19;;;26.57;52.47
2681;BME280;1350;42.134;24.708;2023-05-07T07:46:20;99703.03;;;26.11;52.49
2681;BME280;1350;42.134;24.708;2023-05-07T07:48:47;99706.03;;;25.69;53.78
2681;BME280;1350;42.134;24.708;2023-05-07T07:51:13;99706.34;;;25.66;54.75
2681;BME280;1350;42.134;24.708;2023-05-07T07:53:40;99710.31;;;25.48;56.17
2681;BME280;1350;42.134;24.708;2023-05-07T07:56:09;99701.38;;;25.94;52.82
2681;BME280;1350;42.134;24.708;2023-05-07T07:58:35;99703.91;;;26.42;55.84
2681;BME280;1350;42.134;24.708;2023-05-07T08:01:03;99703.41;;;26.77;54.34
2681;BME280;1350;42.134;24.708;2023-05-07T08:03:30;99713.28;;;26.78;53.42
2681;BME280;1350;42.134;24.708;2023-05-07T08:05:58;99716.44;;;26.20;53.52
2681;BME280;1350;42.134;24.708;2023-05-07T08:08:25;99712.44;;;25.84;53.27
2681;BME280;1350;42.134;24.708;2023-05-07T08:10:52;99701.50;;;26.16;53.94
2681;BME280;1350;42.134;24.708;2023-05-07T08:13:20;99706.28;;;26.06;52.61
2681;BME280;1350;42.134;24.708;2023-05-07T08:15:47;99695.59;;;24.52;56.44
2681;BME280;1350;42.134;24.708;2023-05-07T08:18:13;99697.09;;;23.54;59.93
2681;BME280;1350;42.134;24.708;2023-05-07T08:20:40;99697.53;;;24.34;56.77
2681;BME280;1350;42.134;24.708;2023-05-07T08:23:07;99693.28;;;24.89;56.80
2681;BME280;1350;42.134;24.708;2023-05-07T08:25:34;99690.28;;;25.41;56.58
2681;BME280;1350;42.134;24.708;2023-05-07T08:28:01;99688.91;;;24.39;56.01
2681;BME280;1350;42.134;24.708;2023-05-07T08:30:30;99697.66;;;23.91;56.66
2681;BME280;1350;42.134;24.708;2023-05-07T08:32:57;99677.91;;;23.99;57.14
2681;BME280;1350;42.134;24.708;2023-05-07T08:35:23;99683.28;;;23.91;57.30
2681;BME280;1350;42.134;24.708;2023-05-07T08:37:51;99674.97;;;23.84;56.74
2681;BME280;1350;42.134;24.708;2023-05-07T08:40:17;99679.97;;;24.38;55.56
2681;BME280;1350;42.134;24.708;2023-05-07T08:42:44;99682.41;;;24.65;54.15
2681;BME280;1350;42.134;24.708;2023-05-07T08:45:12;99677.53;;;24.93;55.35
2681;BME280;1350;42.134;24.708;2023-05-07T08:47:43;99683.41;;;24.64;55.87
2681;BME280;1350;42.134;24.708;2023-05-07T08:50:11;99676.59;;;24.60;55.69
2681;BME280;1350;42.134;24.708;2023-05-07T08:52:39;99682.09;;;24.76;55.23
2681;BME280;1350;42.134;24.708;2023-05-07T08:55:07;99666.41;;;24.54;55.87
2681;BME280;1350;42.134;24.708;2023-05-07T08:57:35;99664.69;;;23.96;57.12
2681;BME280;1350;42.134;24.708;2023-05-07T09:00:02;99663.06;;;23.77;57.73
2681;BME280;1350;42.134;24.708;2023-05-07T09:02:29;99658.88;;;24.16;55.92
2681;BME280;1350;42.134;24.708;2023-05-07T09:04:57;99666.41;;;24.54;54.90
2681;BME280;1350;42.134;24.708;2023-05-07T09:07:25;99670.81;;;24.47;55.30
2681;BME280;1350;42.134;24.708;2023-05-07T09:09:52;99660.97;;;24.38;54.51
2681;BME280;1350;42.134;24.708;2023-05-07T09:12:21;99660.75;;;24.24;52.87
2681;BME280;1350;42.134;24.708;2023-05-07T09:14:48;99655.91;;;24.51;53.91
2681;BME280;1350;42.134;24.708;2023-05-07T09:17:15;99662.28;;;23.85;54.55
2681;BME280;1350;42.134;24.708;2023-05-07T09:19:43;99653.28;;;24.18;55.38
2681;BME280;1350;42.134;24.708;2023-05-07T09:22:11;99660.72;;;24.08;55.25
2681;BME280;1350;42.134;24.708;2023-05-07T09:24:38;99655.88;;;23.94;54.22
2681;BME280;1350;42.134;24.708;2023-05-07T09:27:05;99647.88;;;24.26;54.06
2681;BME280;1350;42.134;24.708;2023-05-07T09:29:33;99643.88;;;23.96;52.75
2681;BME280;1350;42.134;24.708;2023-05-07T09:32:00;99654.94;;;23.77;49.72
2681;BME280;1350;42.134;24.708;2023-05-07T09:34:28;99646.44;;;23.98;49.53
2681;BME280;1350;42.134;24.708;2023-05-07T09:36:55;99654.50;;;24.31;48.73
2681;BME280;1350;42.134;24.708;2023-05-07T09:39:25;99652.66;;;24.48;46.96
2681;BME280;1350;42.134;24.708;2023-05-07T09:41:52;99654.13;;;24.76;46.81
2681;BME280;1350;42.134;24.708;2023-05-07T09:44:20;99651.75;;;24.23;46.07
2681;BME280;1350;42.134;24.708;2023-05-07T09:46:53;99640.59;;;23.85;45.79
2681;BME280;1350;42.134;24.708;2023-05-07T09:49:28;99650.84;;;23.73;46.59
2681;BME280;1350;42.134;24.708;2023-05-07T09:52:02;99637.34;;;23.81;46.42
2681;BME280;1350;42.134;24.708;2023-05-07T09:54:40;99633.38;;;24.43;46.14
2681;BME280;1350;42.134;24.708;2023-05-07T09:57:11;99630.91;;;24.81;45.73
2681;BME280;1350;42.134;24.708;2023-05-07T09:59:38;99651.75;;;24.15;46.09
2681;BME280;1350;42.134;24.708;2023-05-07T10:02:04;99625.31;;;24.17;47.88
2681;BME280;1350;42.134;24.708;2023-05-07T10:04:32;99624.34;;;24.34;47.71
2681;BME280;1350;42.134;24.708;2023-05-07T10:06:59;99620.59;;;24.19;47.79
2681;BME280;1350;42.134;24.708;2023-05-07T10:09:26;99628.78;;;24.35;47.72
2681;BME280;1350;42.134;24.708;2023-05-07T10:11:54;99621.00;;;24.56;47.03
2681;BME280;1350;42.134;24.708;2023-05-07T10:14:22;99626.91;;;24.44;46.98
2681;BME280;1350;42.134;24.708;2023-05-07T10:16:48;99627.53;;;24.22;47.95
2681;BME280;1350;42.134;24.708;2023-05-07T10:19:16;99608.25;;;23.83;48.29
2681;BME280;1350;42.134;24.708;2023-05-07T10:21:47;99605.03;;;24.21;48.26
2681;BME280;1350;42.134;24.708;2023-05-07T10:24:19;99594.34;;;24.20;47.30
2681;BME280;1350;42.134;24.708;2023-05-07T10:26:50;99590.28;;;24.24;47.47
2681;BME280;1350;42.134;24.708;2023-05-07T10:29:29;99588.03;;;24.11;47.45
2681;BME280;1350;42.134;24.708;2023-05-07T10:31:59;99596.06;;;24.45;48.16
2681;BME280;1350;42.134;24.708;2023-05-07T10:34:35;99587.59;;;24.56;47.18
2681;BME280;1350;42.134;24.708;2023-05-07T10:37:03;99591.16;;;24.40;47.27
2681;BME280;1350;42.134;24.708;2023-05-07T10:39:30;99579.94;;;24.19;47.75
2681;BME280;1350;42.134;24.708;2023-05-07T10:42:07;99589.16;;;24.50;47.29
2681;BME280;1350;42.134;24.708;2023-05-07T10:44:35;99582.84;;;24.42;46.54
2681;BME280;1350;42.134;24.708;2023-05-07T10:47:06;99566.63;;;24.82;47.23
2681;BME280;1350;42.134;24.708;2023-05-07T10:49:35;99572.59;;;23.96;46.94
2681;BME280;1350;42.134;24.708;2023-05-07T10:52:15;99572.28;;;23.65;47.31
2681;BME280;1350;42.134;24.708;2023-05-07T10:54:43;99572.06;;;23.92;47.89
2681;BME280;1350;42.134;24.708;2023-05-07T10:57:34;99571.44;;;23.98;46.98
2681;BME280;1350;42.134;24.708;2023-05-07T11:00:42;99564.72;;;24.42;45.72
2681;BME280;1350;42.134;24.708;2023-05-07T11:03:09;99552.75;;;24.69;45.73
2681;BME280;1350;42.134;24.708;2023-05-07T11:05:37;99569.03;;;24.69;44.12
2681;BME280;1350;42.134;24.708;2023-05-07T11:08:04;99563.16;;;24.24;44.62
2681;BME280;1350;42.134;24.708;2023-05-07T11:10:51;99563.88;;;24.42;45.38
2681;BME280;1350;42.134;24.708;2023-05-07T11:16:18;99555.88;;;24.16;45.22
2681;BME280;1350;42.134;24.708;2023-05-07T11:18:49;99556.91;;;24.31;44.83
2681;BME280;1350;42.134;24.708;2023-05-07T11:21:32;99555.22;;;24.30;45.19
2681;BME280;1350;42.134;24.708;2023-05-07T11:23:59;99548.94;;;24.30;45.60
2681;BME280;1350;42.134;24.708;2023-05-07T11:26:28;99542.69;;;24.29;45.81
2681;BME280;1350;42.134;24.708;2023-05-07T11:28:57;99547.97;;;24.71;45.72
2681;BME280;1350;42.134;24.708;2023-05-07T11:31:27;99541.16;;;24.59;44.41
2681;BME280;1350;42.134;24.708;2023-05-07T11:33:55;99543.19;;;24.33;44.91
2681;BME280;1350;42.134;24.708;2023-05-07T11:36:23;99547.22;;;23.97;44.84
2681;BME280;1350;42.134;24.708;2023-05-07T11:38:50;99557.31;;;23.95;44.16
2681;BME280;1350;42.134;24.708;2023-05-07T11:41:17;99554.31;;;23.98;43.82
2681;BME280;1350;42.134;24.708;2023-05-07T11:43:58;99535.44;;;24.54;43.34
2681;BME280;1350;42.134;24.708;2023-05-07T11:46:29;99550.66;;;24.55;43.26
2681;BME280;1350;42.134;24.708;2023-05-07T11:48:56;99535.41;;;24.38;43.80
2681;BME280;1350;42.134;24.708;2023-05-07T11:51:24;99551.44;;;23.99;44.32
2681;BME280;1350;42.134;24.708;2023-05-07T11:53:52;99530.47;;;23.60;46.90
2681;BME280;1350;42.134;24.708;2023-05-07T11:56:19;99530.22;;;23.45;47.95
2681;BME280;1350;42.134;24.708;2023-05-07T11:58:47;99527.34;;;23.39;46.27
2681;BME280;1350;42.134;24.708;2023-05-07T12:01:15;99530.31;;;23.61;46.31
2681;BME280;1350;42.134;24.708;2023-05-07T12:03:45;99525.75;;;23.62;46.56
2681;BME280;1350;42.134;24.708;2023-05-07T12:06:14;99518.09;;;24.15;46.44
2681;BME280;1350;42.134;24.708;2023-05-07T12:08:42;99531.47;;;24.08;46.37
2681;BME280;1350;42.134;24.708;2023-05-07T12:11:10;99523.53;;;24.15;46.30
2681;BME280;1350;42.134;24.708;2023-05-07T12:13:39;99517.63;;;23.70;48.08
2681;BME280;1350;42.134;24.708;2023-05-07T12:16:06;99513.53;;;24.15;46.81
2681;BME280;1350;42.134;24.708;2023-05-07T12:18:35;99520.91;;;23.89;46.22
2681;BME280;1350;42.134;24.708;2023-05-07T12:21:04;99520.03;;;23.81;46.78
2681;BME280;1350;42.134;24.708;2023-05-07T12:23:33;99514.38;;;24.16;46.87
2681;BME280;1350;42.134;24.708;2023-05-07T12:26:00;99512.59;;;23.83;46.78
2681;BME280;1350;42.134;24.708;2023-05-07T12:28:27;99504.53;;;24.07;46.47
2681;BME280;1350;42.134;24.708;2023-05-07T12:30:54;99507.22;;;23.91;47.42
2681;BME280;1350;42.134;24.708;2023-05-07T12:33:24;99507.25;;;24.07;46.50
2681;BME280;1350;42.134;24.708;2023-05-07T12:35:53;99500.34;;;24.52;46.49
2681;BME280;1350;42.134;24.708;2023-05-07T12:38:23;99497.94;;;24.49;44.12
2681;BME280;1350;42.134;24.708;2023-05-07T12:40:53;99493.91;;;24.29;44.88
2681;BME280;1350;42.134;24.708;2023-05-07T12:43:24;99505.06;;;24.10;44.18
2681;BME280;1350;42.134;24.708;2023-05-07T12:45:53;99489.66;;;24.11;46.35
2681;BME280;1350;42.134;24.708;2023-05-07T12:48:20;99487.94;;;24.02;43.93
2681;BME280;1350;42.134;24.708;2023-05-07T12:50:49;99488.97;;;24.25;44.40
2681;BME280;1350;42.134;24.708;2023-05-07T12:53:16;99489.47;;;24.28;44.58
2681;BME280;1350;42.134;24.708;2023-05-07T12:55:45;99477.28;;;24.56;45.63
2681;BME280;1350;42.134;24.708;2023-05-07T12:58:16;99480.34;;;24.61;44.60
2681;BME280;1350;42.134;24.708;2023-05-07T13:00:43;99476.97;;;24.27;45.93
2681;BME280;1350;42.134;24.708;2023-05-07T13:03:10;99468.47;;;24.54;45.99
2681;BME280;1350;42.134;24.708;2023-05-07T13:05:38;99462.00;;;24.88;45.71
2681;BME280;1350;42.134;24.708;2023-05-07T13:08:05;99464.22;;;24.68;45.43
2681;BME280;1350;42.134;24.708;2023-05-07T13:10:34;99468.47;;;24.54;46.53
2681;BME280;1350;42.134;24.708;2023-05-07T13:13:03;99458.97;;;24.82;46.57
2681;BME280;1350;42.134;24.708;2023-05-07T13:15:30;99466.59;;;24.63;45.90